Swett, South Dakota
Current Conditions -  °F | °C
As of 3:52 AM on Friday 31 Oct 2014 (Local Time) from KIEN Reporting Station
Overcast Overcast  
Wind Chill: 21°   Ceiling: 400
Heat Index: 29°   Visibility: 8mi
Dew Point: 28°   Wind: 8mph
Humidity: 96%   Direction: 130°SE
Pressure: 30.46"   Gusts: NA
Location:  43.2013°N, 101.679°W
Report Text: KIEN 310952Z AUTO 13007KT 8SM OVC004 M02/M02 A3046 RMK AO2 SLP329 T10171022
Loading
Personal Weather Stations






























Interactive Weather Map
Tropical Storm Tracking
New forecast layout! Learn more

10-Day Weather Forecast

Advertisements
Track Severe Weather on mobile